Aeroporto :
LOGIN :

Iscrizione | Disclaimer

   EN    FR    IT 

 










Sommario :    VFR   VFR Marginale   IFR   IFR Intensivo   IFR Molto Intensivo
Visibilità : 
Base nubi : 
>= 8 km
>= 3000ft
5 / 8 km
1000 / 3000 ft
1500m / 5 km
500 / 1000 ft
800 / 1500m
200 / 500 ft
< 800m
< 200 ft
Simboli :   Temporali  Nebbia  Neve Forte  Precipitazioni Forti  Vento > 20 kt
SIGMETs :   Varie  Temporali  Ghiacco  Turbolenza  Onda orograficha  Ceneri Vulcaniche






- Altitudine del aeroporto : 13 ft
- Codice IATA : CAG


LIEE - Cagliari Elmas

ULTIMO METAR :
  • 021220Z 15010KT 120V180 9999 FEW035 14/07 Q1012

METARs OBSOLETI :
  • 021150Z 14011KT 9999 FEW035 15/07 Q1013
  • 021120Z 14010KT 120V180 9999 SCT035 15/07 Q1013
  • 021050Z 15009KT 9999 SCT035 14/07 Q1013
  • 021020Z 15010KT 9999 SCT035 13/07 Q1013

TAF TAF LIEE
Valido dal 02 a 12 ore il 03 a 12 ore UTC


021100Z 0212/0312 16012KT 9999 SCT030
BECMG 0218/0220 VRB05KT
BECMG 0308/0310 15012KT



MetMap, La meteo Aeronautica in un colpo d'occhio ! - Copyright ORBIFLY Dicembre 2007 - Disclaimer

ORBIFLY MET'MAP TEAM :

Programmazione e sviluppo : Alexandra Zaïnal
Concezione : Baudouin d'Aumeries
Aiuto per la programmazione : Marc-Olivier Méhu
Supporto tecnico e logistico : Manuel Goepfert
Aiuto per la traduzione : Arnaldo La Scala

Contatto : metmap@orbifly.com




FONTI E CREDITI :

   NOAA